Overview Statistics Trail Chart Weather Telemetry Raw packets
 

This is the latest recevied weather packets stored in our database for station/object DH8TOM-3. If no packets are shown the sender has not sent any weather packets the latest 10 day(s).

<< 83 84 85 86 87 88 89 >>
Time Temp. Humidity Pressure Rain* Wind** Luminosity Snow
1787992821 22.22° C 62% 1013.6 hPa 0 mm - - -
1787992519 21.67° C 65% 1013.6 hPa 0 mm - - -
1787992218 21.67° C 65% 1013.6 hPa 0 mm - - -
1787991918 21.67° C 65% 1013.6 hPa 0 mm - - -
1787991616 21.67° C 65% 1013.6 hPa 0 mm - - -
1787991315 21.67° C 66% 1013.5 hPa 0 mm - - -
1787990713 21.11° C 68% 1013.4 hPa 0 mm - - -
1787990111 20.56° C 69% 1013.4 hPa 0 mm - - -
1787989519 20° C 72% 1013.2 hPa 0 mm - - -
1787988907 18.89° C 76% 1013.3 hPa 0 mm - - -
1787988315 17.78° C 77% 1013.2 hPa 0 mm - - -
1787988005 17.78° C 77% 1013.2 hPa 0 mm - - -
1787987402 17.78° C 76% 1013.1 hPa 0 mm - - -
1787987101 17.78° C 76% 1013 hPa 0 mm - - -
1787986800 17.78° C 76% 1013 hPa 0 mm - - -
1787986498 17.78° C 75% 1012.9 hPa 0 mm - - -
1787986198 17.78° C 75% 1012.9 hPa 0 mm - - -
1787985897 17.78° C 76% 1012.8 hPa 0 mm - - -
1787985596 17.78° C 76% 1012.8 hPa 0 mm - - -
1787985295 17.22° C 76% 1012.7 hPa 0 mm - - -
1787984995 17.22° C 76% 1012.7 hPa 0 mm - - -
1787984693 17.22° C 77% 1012.7 hPa 0 mm - - -
1787984392 17.22° C 77% 1012.7 hPa 0 mm - - -
1787984090 17.22° C 77% 1012.6 hPa 0 mm - - -
1787983790 17.22° C 77% 1012.6 hPa 0 mm - - -

* Rain latest hour (hover to see other rain measurements)
** Current wind speed in m/s (hover to see current wind gust speed)